aviador You're here:

EPSC Decoded Metar

SZCZECIN in POLAND
Report Time2017-12-15 17:30:00
UTC Time2017-12-15 17:54:33
Flight Rules ifr IFR
WindVRB at 02 kt
Visibility2300 m
Phenomena:Mist
Clouds:Few 001 Hf
Scattered 002 Hf
Broken 034 Hf
Ceiling3,400 ft
Temp00°C (ISA -15)
Dew Point00°C (100% RH)
AAT-2.7°C
QNH0997 hPa
Density Alt-1,188 ft
Elevation10 ft
Report Wrong Elevation
Raw Report
EPSC 151730Z VRB02KT 2300 BR FEW001 SCT002 BKN034 00/M00 Q0997=

Extra information for EPSC:More info

Metar Taf Metar & Taf Last 4 Metars F.Rules Stats Wind Profile Meteogram Temp Stats Airport Information Weather charts Add Link Nearby VenuesMetar ALERT Operation Metar Decoded Social comments